TimeEDT,TemperatureF,Dew PointF,Humidity,Sea Level PressureIn,VisibilityMPH,Wind Direction,Wind SpeedMPH,Gust SpeedMPH,PrecipitationIn,Events,Conditions,WindDirDegrees,DateUTC
12:51 AM,70.9,70.9,100,30.32,10.0,Calm,Calm,-,N/A,,Clear,0,2013-07-24 04:51:00
1:51 AM,70.9,70.0,97,30.30,10.0,Calm,Calm,-,N/A,,Partly Cloudy,0,2013-07-24 05:51:00
2:51 AM,70.9,70.0,97,30.30,8.0,Calm,Calm,-,N/A,,Clear,0,2013-07-24 06:51:00
3:51 AM,70.0,68.9,96,30.31,10.0,Calm,Calm,-,N/A,,Clear,0,2013-07-24 07:51:00
4:51 AM,70.0,68.9,96,30.31,10.0,Calm,Calm,-,N/A,,Mostly Cloudy,0,2013-07-24 08:51:00
5:51 AM,68.9,68.0,97,30.31,6.0,Calm,Calm,-,N/A,,Clear,0,2013-07-24 09:51:00
6:51 AM,72.0,70.9,96,30.32,10.0,Calm,Calm,-,N/A,,Partly Cloudy,0,2013-07-24 10:51:00
7:51 AM,73.9,70.9,90,30.35,10.0,Calm,Calm,-,N/A,,Scattered Clouds,0,2013-07-24 11:51:00
8:51 AM,77.9,68.0,71,30.35,10.0,WSW,6.9,-,N/A,,Clear,250,2013-07-24 12:51:00
9:51 AM,79.9,65.8,62,30.37,10.0,NW,6.9,-,N/A,,Clear,310,2013-07-24 13:51:00
10:51 AM,82.9,64.9,54,30.38,10.0,WNW,9.2,-,N/A,,Partly Cloudy,300,2013-07-24 14:51:00
11:51 AM,83.8,64.9,53,30.40,10.0,West,9.2,19.6,N/A,,Mostly Cloudy,260,2013-07-24 15:51:00
12:51 PM,83.8,64.9,53,30.41,10.0,West,12.7,18.4,N/A,,Mostly Cloudy,270,2013-07-24 16:51:00
1:51 PM,83.8,63.9,51,30.42,10.0,NW,13.8,-,N/A,,Scattered Clouds,310,2013-07-24 17:51:00
2:51 PM,82.9,61.9,49,30.44,10.0,NW,12.7,-,N/A,,Mostly Cloudy,310,2013-07-24 18:51:00
3:51 PM,81.0,61.0,50,30.46,10.0,NNW,16.1,-,N/A,,Mostly Cloudy,330,2013-07-24 19:51:00
4:51 PM,79.9,59.9,50,30.48,10.0,North,6.9,-,N/A,,Overcast,360,2013-07-24 20:51:00
5:51 PM,79.0,61.0,54,30.50,10.0,Calm,Calm,-,N/A,,Scattered Clouds,0,2013-07-24 21:51:00
6:51 PM,79.0,59.9,52,30.51,10.0,North,9.2,-,N/A,,Clear,350,2013-07-24 22:51:00
7:51 PM,74.8,59.0,58,30.57,10.0,NNW,11.5,-,N/A,,Mostly Cloudy,340,2013-07-24 23:51:00
8:51 PM,70.9,54.9,57,30.61,10.0,North,9.2,-,N/A,,Clear,350,2013-07-25 00:51:00
9:51 PM,66.9,54.0,63,30.66,10.0,North,10.4,17.3,N/A,,Mostly Cloudy,360,2013-07-25 01:51:00
10:51 PM,64.9,52.0,63,30.69,10.0,North,4.6,-,N/A,,Mostly Cloudy,360,2013-07-25 02:51:00
11:51 PM,63.0,50.9,65,30.71,10.0,North,8.1,-,N/A,,Overcast,360,2013-07-25 03:51:00